Time;durP1;ratioP1;P1;durP2;ratioP2;P2;SDS_P1;SDS_P2;PMS_P1;PMS_P2;Temp;Humidity;BMP_temperature;BMP_pressure;BME280_temperature;BME280_humidity;BME280_pressure;Samples;Min_cycle;Max_cycle;Signal;HPM_P1;HPM_P2
2023/06/08 00:01:55;;;;;;;2.55;2.45;;;22.00;99.90;;;;;;5004928;28;20030;-82
2023/06/08 00:04:29;;;;;;;2.72;2.53;;;21.90;99.90;;;;;;5002361;28;20443;-83
2023/06/08 00:06:56;;;;;;;2.65;2.30;;;21.90;99.90;;;;;;5001336;28;20060;-83
2023/06/08 00:09:22;;;;;;;2.70;2.50;;;;;;;;;;5003162;28;20049;-83
2023/06/08 00:11:48;;;;;;;2.85;2.65;;;21.90;99.90;;;;;;5018254;28;20041;-83
2023/06/08 00:14:13;;;;;;;2.58;2.38;;;22.00;99.90;;;;;;4986861;28;20598;-83
2023/06/08 00:16:40;;;;;;;2.67;2.47;;;;;;;;;;5004998;28;20049;-83
2023/06/08 00:19:07;;;;;;;2.35;2.25;;;21.90;99.90;;;;;;5003999;28;20042;-83
2023/06/08 00:21:33;;;;;;;2.70;2.60;;;21.90;99.90;;;;;;5005190;28;20115;-83
2023/06/08 00:23:59;;;;;;;2.40;2.30;;;21.90;99.90;;;;;;4986737;28;20038;-84
2023/06/08 00:26:26;;;;;;;2.67;2.58;;;21.90;99.90;;;;;;5006321;28;20096;-83
2023/06/08 00:28:52;;;;;;;2.20;2.10;;;;;;;;;;4987635;28;20046;-84
2023/06/08 00:31:18;;;;;;;2.50;2.40;;;;;;;;;;5005115;28;20428;-83
2023/06/08 00:33:43;;;;;;;2.47;2.38;;;21.90;99.90;;;;;;4986395;28;20038;-83
2023/06/08 00:36:09;;;;;;;2.30;2.08;;;21.90;99.90;;;;;;4990192;28;20117;-83
2023/06/08 00:38:35;;;;;;;2.70;2.50;;;21.90;99.90;;;;;;4995179;28;20030;-83
2023/06/08 00:41:01;;;;;;;2.58;2.30;;;;;;;;;;4992414;28;20042;-83
2023/06/08 00:43:27;;;;;;;3.97;2.80;;;;;;;;;;5004574;28;20092;-83
2023/06/08 00:45:54;;;;;;;2.22;2.13;;;;;;;;;;5002227;28;20038;-83
2023/06/08 00:48:20;;;;;;;2.67;2.47;;;;;;;;;;5002041;28;20125;-83
2023/06/08 00:50:46;;;;;;;2.28;2.17;;;21.90;99.90;;;;;;5001372;28;20128;-83
2023/06/08 00:53:13;;;;;;;2.45;2.35;;;;;;;;;;4999266;28;20109;-83
2023/06/08 00:55:39;;;;;;;2.30;2.20;;;;;;;;;;5005149;28;20033;-83
2023/06/08 00:58:11;;;;;;;2.40;2.30;;;21.90;99.90;;;;;;5014448;28;20044;-83
2023/06/08 01:00:37;;;;;;;2.42;2.33;;;;;;;;;;5003174;28;20049;-83
2023/06/08 01:03:03;;;;;;;2.33;2.08;;;21.90;99.90;;;;;;5014031;28;20046;-83
2023/06/08 01:05:29;;;;;;;2.05;1.95;;;;;;;;;;5000845;28;20049;-83
2023/06/08 01:08:02;;;;;;;2.20;2.10;;;;;;;;;;5000902;28;20054;-82
2023/06/08 01:10:37;;;;;;;2.43;2.33;;;;;;;;;;4998757;28;20735;-84
2023/06/08 01:13:05;;;;;;;2.40;2.30;;;;;;;;;;4998043;28;20057;-83
2023/06/08 01:15:32;;;;;;;2.20;2.10;;;;;;;;;;5003169;28;20472;-84
2023/06/08 01:18:04;;;;;;;2.40;2.30;;;;;;;;;;4996862;28;20535;-83
2023/06/08 01:20:36;;;;;;;2.33;2.20;;;;;;;;;;5011102;28;20078;-83
2023/06/08 01:23:07;;;;;;;2.03;1.92;;;;;;;;;;5000376;28;20046;-82
2023/06/08 01:25:35;;;;;;;2.30;2.20;;;;;;;;;;5002675;28;20412;-83
2023/06/08 01:28:12;;;;;;;2.00;1.90;;;;;;;;;;5000374;28;20046;-83
2023/06/08 01:30:41;;;;;;;2.17;2.05;;;;;;;;;;5005888;28;20415;-83
2023/06/08 01:33:08;;;;;;;2.15;2.05;;;;;;;;;;4994239;28;20069;-83
2023/06/08 01:35:34;;;;;;;2.00;1.90;;;;;;;;;;5003860;28;20050;-83
2023/06/08 01:38:04;;;;;;;2.10;2.00;;;;;;;;;;5015252;28;20508;-83
2023/06/08 01:40:37;;;;;;;1.80;1.70;;;;;;;;;;5002991;28;20050;-83
2023/06/08 01:43:03;;;;;;;2.03;1.92;;;;;;;;;;4999066;28;20034;-83
2023/06/08 01:45:30;;;;;;;2.47;2.38;;;;;;;;;;5000775;28;20435;-83
2023/06/08 01:48:02;;;;;;;2.25;2.03;;;;;;;;;;5001180;28;20135;-83
2023/06/08 01:50:28;;;;;;;2.38;2.15;;;;;;;;;;5002847;28;20046;-83
2023/06/08 01:52:58;;;;;;;2.47;2.38;;;;;;;;;;5003799;28;20124;-84
2023/06/08 01:55:24;;;;;;;2.10;1.98;;;;;;;;;;5003913;28;20060;-83
2023/06/08 01:57:50;;;;;;;2.00;1.90;;;;;;;;;;5008337;28;20044;-83
2023/06/08 02:00:17;;;;;;;2.22;2.13;;;;;;;;;;5007134;28;20046;-83
2023/06/08 02:02:44;;;;;;;2.17;2.08;;;;;;;;;;5017718;28;20052;-83
2023/06/08 02:05:10;;;;;;;2.17;2.08;;;;;;;;;;5008607;28;20049;-83
2023/06/08 02:07:37;;;;;;;2.05;1.95;;;;;;;;;;4990731;28;20046;-83
2023/06/08 02:10:06;;;;;;;1.80;1.70;;;;;;;;;;5003457;28;20153;-83
2023/06/08 02:12:32;;;;;;;2.55;2.45;;;;;;;;;;5000885;28;20096;-83
2023/06/08 02:14:58;;;;;;;2.20;2.10;;;;;;;;;;5000744;28;20100;-84
2023/06/08 02:17:27;;;;;;;2.30;2.20;;;;;;;;;;5007857;28;20123;-83
2023/06/08 02:19:56;;;;;;;2.13;2.03;;;;;;;;;;5004582;28;20516;-83
2023/06/08 02:22:22;;;;;;;1.85;1.75;;;;;;;;;;5005084;28;20050;-84
2023/06/08 02:24:49;;;;;;;2.20;2.10;;;;;;;;;;5006601;28;20053;-84
2023/06/08 02:27:15;;;;;;;2.08;1.98;;;;;;;;;;5004540;28;20073;-83
2023/06/08 02:29:41;;;;;;;2.40;2.30;;;;;;;;;;5008439;28;20072;-83
2023/06/08 02:32:07;;;;;;;2.20;2.10;;;;;;;;;;5005663;28;20105;-83
2023/06/08 02:34:33;;;;;;;2.25;2.10;;;;;;;;;;5005156;28;20593;-83
2023/06/08 02:36:59;;;;;;;1.77;1.65;;;;;;;;;;5006732;28;20423;-83
2023/06/08 02:39:25;;;;;;;1.95;1.85;;;;;;;;;;5005279;28;20503;-83
2023/06/08 02:41:51;;;;;;;2.20;2.10;;;;;;;;;;5004493;28;20137;-83
2023/06/08 02:44:17;;;;;;;2.08;1.98;;;;;;;;;;5022800;28;20035;-83
2023/06/08 02:46:43;;;;;;;2.30;2.20;;;;;;;;;;5003681;28;20042;-83
2023/06/08 02:49:09;;;;;;;1.77;1.67;;;;;;;;;;5004867;28;20458;-82
2023/06/08 02:51:35;;;;;;;2.17;2.08;;;;;;;;;;5003360;28;20049;-83
2023/06/08 02:54:02;;;;;;;1.90;1.80;;;;;;;;;;5019941;28;20169;-82
2023/06/08 02:56:28;;;;;;;1.90;1.80;;;;;;;;;;5008156;28;20046;-84
2023/06/08 02:58:54;;;;;;;1.95;1.85;;;;;;;;;;5004514;28;20095;-83
2023/06/08 03:01:20;;;;;;;2.40;2.30;;;;;;;;;;5001996;28;20049;-83
2023/06/08 03:03:46;;;;;;;1.80;1.80;;;;;;;;;;5002438;28;20111;-83
2023/06/08 03:06:17;;;;;;;1.80;1.70;;;;;;;;;;5004641;28;20508;-83
2023/06/08 03:08:43;;;;;;;3.10;1.92;;;;;;;;;;5002160;28;20038;-83
2023/06/08 03:11:09;;;;;;;2.00;1.90;;;;;;;;;;5005241;28;20381;-82
2023/06/08 03:13:35;;;;;;;1.85;1.75;;;;;;;;;;5002493;28;20057;-83
2023/06/08 03:16:01;;;;;;;2.30;2.10;;;;;;;;;;5005748;28;20034;-83
2023/06/08 03:18:27;;;;;;;2.10;2.00;;;;;;;;;;5004542;28;20041;-82
2023/06/08 03:20:53;;;;;;;1.90;1.80;;;;;;;;;;5003473;28;20038;-83
2023/06/08 03:23:22;;;;;;;2.20;2.10;;;;;;;;;;5008704;28;20045;-82
2023/06/08 03:25:49;;;;;;;2.20;2.10;;;;;;;;;;5004278;28;20040;-83
2023/06/08 03:28:18;;;;;;;1.60;1.58;;;;;;;;;;5003369;28;20403;-82
2023/06/08 03:30:44;;;;;;;2.40;2.30;;;;;;;;;;5005058;28;20047;-83
2023/06/08 03:33:11;;;;;;;2.20;2.10;;;;;;;;;;4998125;28;20128;-82
2023/06/08 03:35:37;;;;;;;2.00;1.90;;;;;;;;;;5006474;28;20117;-82
2023/06/08 03:38:03;;;;;;;1.83;1.73;;;;;;;;;;5006173;28;20500;-81
2023/06/08 03:40:30;;;;;;;1.58;1.58;;;;;;;;;;5000678;28;20053;-83
2023/06/08 03:42:56;;;;;;;1.73;1.63;;;;;;;;;;5001129;28;20061;-83
2023/06/08 03:45:22;;;;;;;1.98;1.88;;;;;;;;;;5016847;28;20058;-83
2023/06/08 03:47:48;;;;;;;1.90;1.80;;;;;;;;;;5004134;28;20439;-83
2023/06/08 03:50:14;;;;;;;1.90;1.80;;;;;;;;;;5005310;28;20539;-82
2023/06/08 03:52:40;;;;;;;1.98;1.88;;;;;;;;;;5002102;28;20457;-82
2023/06/08 03:55:11;;;;;;;2.15;1.90;;;;;;;;;;5000801;28;20533;-81
2023/06/08 03:57:37;;;;;;;2.10;2.00;;;;;;;;;;5004502;28;20049;-82
2023/06/08 04:00:07;;;;;;;2.28;2.17;;;;;;;;;;5002641;28;20684;-82
2023/06/08 04:02:33;;;;;;;2.10;2.00;;;;;;;;;;5002460;28;20049;-82
2023/06/08 04:04:59;;;;;;;1.83;1.77;;;;;;;;;;5006296;28;20042;-82
2023/06/08 04:07:26;;;;;;;1.95;1.85;;;;;;;;;;5005273;28;20507;-82
2023/06/08 04:09:52;;;;;;;1.88;1.77;;;;;;;;;;5019974;28;20046;-82
2023/06/08 04:12:18;;;;;;;1.77;1.67;;;;;;;;;;4998675;28;20038;-83
2023/06/08 04:14:45;;;;;;;2.10;1.90;;;;;;;;;;5004292;28;20041;-84
2023/06/08 04:17:12;;;;;;;1.70;1.60;;;;;;;;;;5004329;28;20046;-82
2023/06/08 04:19:38;;;;;;;1.92;1.83;;;;;;;;;;5003840;28;20077;-83
2023/06/08 04:22:04;;;;;;;1.70;1.60;;;;;;;;;;5002388;28;20039;-82
2023/06/08 04:24:31;;;;;;;1.77;1.70;;;;;;;;;;5003619;28;20749;-82
2023/06/08 04:26:57;;;;;;;2.00;1.90;;;;;;;;;;5003696;28;20043;-82
2023/06/08 04:29:23;;;;;;;1.50;1.50;;;;;;;;;;5005727;28;20065;-82
2023/06/08 04:31:49;;;;;;;1.80;1.70;;;;;;;;;;5002349;28;20081;-82
2023/06/08 04:34:15;;;;;;;1.70;1.70;;;;;;;;;;4997142;28;20038;-83
2023/06/08 04:36:42;;;;;;;1.80;1.75;;;;;;;;;;5005569;28;20048;-82
2023/06/08 04:39:08;;;;;;;1.55;1.55;;;;;;;;;;5000695;28;20427;-88
2023/06/08 04:41:34;;;;;;;2.22;2.03;;;;;;;;;;5005227;28;20054;-81
2023/06/08 04:44:01;;;;;;;2.60;2.50;;;;;;;;;;5003151;28;20056;-80
2023/06/08 04:46:30;;;;;;;2.75;2.55;;;;;;;;;;5006258;28;20054;-80
2023/06/08 04:48:56;;;;;;;2.90;2.70;;;;;;;;;;4999430;28;20157;-80
2023/06/08 04:51:29;;;;;;;3.35;2.90;;;;;;;;;;5000361;28;20042;-78
2023/06/08 04:53:56;;;;;;;3.03;2.83;;;;;;;;;;5001780;28;20049;-77
2023/06/08 04:56:24;;;;;;;3.65;2.67;;;;;;;;;;5000343;28;20523;-77
2023/06/08 04:58:50;;;;;;;2.83;2.65;;;;;;;;;;5003592;28;20042;-77
2023/06/08 05:01:16;;;;;;;2.60;2.50;;;;;;;;;;5000058;28;20189;-75
2023/06/08 05:03:43;;;;;;;2.40;2.30;;;;;;;;;;5001187;28;20050;-76
2023/06/08 05:06:09;;;;;;;2.45;2.35;;;;;;;;;;5002430;28;20128;-77
2023/06/08 05:08:35;;;;;;;3.35;3.15;;;;;;;;;;5003575;28;20054;-75
2023/06/08 05:11:01;;;;;;;2.60;2.50;;;;;;;;;;4997856;28;20108;-75
2023/06/08 05:13:27;;;;;;;2.80;2.60;;;;;;;;;;4997865;28;20565;-75
2023/06/08 05:15:58;;;;;;;2.50;2.40;;;;;;;;;;4999251;28;20052;-75
2023/06/08 05:18:23;;;;;;;2.72;2.55;;;;;;;;;;5002236;28;20057;-75
2023/06/08 05:20:50;;;;;;;2.70;2.50;;;;;;;;;;5003566;28;20054;-75
2023/06/08 05:23:15;;;;;;;3.17;2.80;;;;;;;;;;5003768;28;20041;-75
2023/06/08 05:25:41;;;;;;;3.20;3.00;;;;;;;;;;5008739;28;20588;-76
2023/06/08 05:28:07;;;;;;;4.53;2.70;;;;;;;;;;4987270;28;20045;-75
2023/06/08 05:30:33;;;;;;;2.60;2.40;;;;;;;;;;5001516;28;20117;-76
2023/06/08 05:33:00;;;;;;;2.72;2.53;;;;;;;;;;5000076;28;20160;-77
2023/06/08 05:35:26;;;;;;;9.65;2.90;;;;;;;;;;4988076;28;20208;-76
2023/06/08 05:37:52;;;;;;;5.22;2.80;;;;;;;;;;5005110;28;20038;-76
2023/06/08 05:40:18;;;;;;;4.10;3.17;;;;;;;;;;5002320;28;20492;-76
2023/06/08 05:42:44;;;;;;;2.80;2.60;;;;;;;;;;5004790;28;20072;-76
2023/06/08 05:45:11;;;;;;;2.92;2.65;;;;;;;;;;5006197;28;20054;-76
2023/06/08 05:47:37;;;;;;;2.85;2.65;;;;;;;;;;5004327;28;20038;-76
2023/06/08 05:50:03;;;;;;;3.63;3.42;;;;;;;;;;5004944;28;20038;-76
2023/06/08 05:52:30;;;;;;;3.08;2.92;;;;;;;;;;5006615;28;20061;-76
2023/06/08 05:54:56;;;;;;;3.47;2.70;;;;;;;;;;5001216;28;20030;-76
2023/06/08 05:57:22;;;;;;;2.90;2.70;;;;;;;;;;5002052;28;20045;-78
2023/06/08 05:59:48;;;;;;;2.58;2.35;;;;;;;;;;5001684;28;20499;-81
2023/06/08 06:02:14;;;;;;;2.50;2.40;;;;;;;;;;5003432;28;20034;-81
2023/06/08 06:04:40;;;;;;;2.70;2.50;;;;;;;;;;5003510;28;20117;-80
2023/06/08 06:07:07;;;;;;;2.50;2.40;;;;;;;;;;5002739;28;20042;-84
2023/06/08 06:09:33;;;;;;;2.70;2.40;;;;;;;;;;5003025;28;20104;-84
2023/06/08 06:11:59;;;;;;;2.70;2.60;;;;;;;;;;5001226;28;20084;-83
2023/06/08 06:14:25;;;;;;;3.05;2.85;;;;;;;;;;5001192;28;20169;-80
2023/06/08 06:16:51;;;;;;;2.50;2.40;;;;;;;;;;5001624;28;20045;-80
2023/06/08 06:19:17;;;;;;;2.55;2.33;;;;;;;;;;5001555;28;20504;-80
2023/06/08 06:21:43;;;;;;;2.30;2.10;;;;;;;;;;4997749;28;20050;-82
2023/06/08 06:24:09;;;;;;;2.35;2.25;;;;;;;;;;5000443;28;20038;-85
2023/06/08 06:26:35;;;;;;;2.38;2.28;;;;;;;;;;5003178;28;20509;-84
2023/06/08 06:29:01;;;;;;;2.58;2.47;;;;;;;;;;4997673;28;20038;-85
2023/06/08 06:31:27;;;;;;;2.70;2.42;;;;;;;;;;4998561;28;20145;-85
2023/06/08 06:33:53;;;;;;;2.25;2.15;;;;;;;;;;5000062;28;20117;-84
2023/06/08 06:36:19;;;;;;;2.35;2.22;;;;;;;;;;5005204;28;20038;-86
2023/06/08 06:38:46;;;;;;;3.92;2.47;;;;;;;;;;5007520;28;20045;-85
2023/06/08 06:41:11;;;;;;;2.47;2.30;;;;;;;;;;5018481;28;20159;-88
2023/06/08 06:43:37;;;;;;;2.65;2.55;;;;;;;;;;4999919;28;20495;-84
2023/06/08 06:46:03;;;;;;;2.45;2.30;;;;;;;;;;5005388;28;20048;-84
2023/06/08 06:48:30;;;;;;;2.75;2.65;;;;;;;;;;5006366;28;20120;-85
2023/06/08 06:50:56;;;;;;;2.90;2.70;;;;;;;;;;5004723;28;20042;-85
2023/06/08 06:53:22;;;;;;;2.60;2.40;;;;;;;;;;5005144;28;20046;-83
2023/06/08 06:55:48;;;;;;;2.42;2.33;;;;;;;;;;5006774;28;20585;-84
2023/06/08 06:58:15;;;;;;;3.03;2.83;;;;;;;;;;5006185;28;20046;-87
2023/06/08 07:00:41;;;;;;;2.38;2.22;;;;;;;;;;5004277;28;20053;-86
2023/06/08 07:03:11;;;;;;;2.58;2.38;;;;;;;;;;5000869;28;20108;-85
2023/06/08 07:05:37;;;;;;;2.50;2.38;;;;;;;;;;5005610;28;20069;-82
2023/06/08 07:08:03;;;;;;;3.40;2.40;;;;;;;;;;5006510;28;20550;-82
2023/06/08 07:10:29;;;;;;;5.15;2.45;;;;;;;;;;5004499;28;20080;-81
2023/06/08 07:12:58;;;;;;;3.30;3.10;;;;;;;;;;5014292;28;20401;-87
2023/06/08 07:15:24;;;;;;;2.80;2.60;;;;;;;;;;5008084;28;20073;-87
2023/06/08 07:17:50;;;;;;;2.83;2.30;;;;;;;;;;5005687;28;20038;-85
2023/06/08 07:20:16;;;;;;;3.33;2.50;;;;;;;;;;5009310;28;20108;-81
2023/06/08 07:22:42;;;;;;;4.05;3.10;;;;;;;;;;5019977;28;20034;-83
2023/06/08 07:25:08;;;;;;;2.78;2.58;;;;;;;;;;5019948;28;20314;-84
2023/06/08 07:27:34;;;;;;;6.57;2.60;;;;;;;;;;5004794;28;20041;-83
2023/06/08 07:30:00;;;;;;;2.90;2.47;;;;;;;;;;5005345;28;20103;-85
2023/06/08 07:32:30;;;;;;;2.83;2.63;;;;;;;;;;5009049;28;20048;-79
2023/06/08 07:34:56;;;;;;;3.85;2.88;;;;;;;;;;5009174;28;20065;-81
2023/06/08 07:37:22;;;;;;;4.68;2.80;;;;;;;;;;5020345;28;20430;-77
2023/06/08 07:39:48;;;;;;;2.67;2.47;;;;;;;;;;5004430;28;20046;-80
2023/06/08 07:42:14;;;;;;;2.80;2.60;;;;;;;;;;5020924;28;20045;-82
2023/06/08 07:44:40;;;;;;;4.47;3.10;;;;;;;;;;5006301;28;20030;-79
2023/06/08 07:47:06;;;;;;;2.95;2.67;;;;;;;;;;4661250;28;10000173;-81
2023/06/08 07:49:32;;;;;;;3.50;2.75;;;;;;;;;;4998680;28;20034;-81
2023/06/08 07:51:58;;;;;;;2.72;2.50;;;;;;;;;;5003302;28;20069;-84
2023/06/08 07:54:24;;;;;;;3.03;2.55;;;;;;;;;;5001033;28;20030;-82
2023/06/08 07:56:50;;;;;;;2.78;2.58;;;;;;;;;;5001511;28;20050;-80
2023/06/08 07:59:16;;;;;;;2.85;2.65;;;;;;;;;;5003426;28;20040;-82
2023/06/08 08:01:43;;;;;;;5.05;2.42;;;;;;;;;;5000519;28;20061;-84
2023/06/08 08:04:09;;;;;;;2.65;2.35;;;;;;;;;;5000512;28;20092;-79
2023/06/08 08:06:35;;;;;;;5.07;2.30;;;;;;;;;;4998270;28;20336;-79
2023/06/08 08:09:01;;;;;;;3.17;2.08;;;;;;;;;;4999071;28;20046;-79
2023/06/08 08:11:28;;;;;;;4.35;2.50;;;;;;;;;;5001361;28;20180;-79
2023/06/08 08:13:54;;;;;;;3.17;2.97;;;;;;;;;;5003008;28;20057;-81
2023/06/08 08:16:20;;;;;;;5.43;2.95;;;;;;;;;;5001413;28;20046;-80
2023/06/08 08:18:46;;;;;;;3.10;2.83;;;;;;;;;;4999300;28;20040;-77
2023/06/08 08:21:12;;;;;;;4.22;2.88;;;;;;;;;;5001211;28;20079;-79
2023/06/08 08:23:38;;;;;;;8.13;3.10;;;;;;;;;;5000649;28;20078;-77
2023/06/08 08:26:04;;;;;;;3.58;2.53;;;;;;;;;;5002337;28;20437;-77
2023/06/08 08:28:30;;;;;;;3.75;2.78;;;;;;;;;;4999293;28;20132;-77
2023/06/08 08:30:57;;;;;;;5.32;2.63;;;;;;;;;;5000769;28;20522;-77
2023/06/08 08:33:26;;;;;;;3.10;2.80;;;;;;;;;;4984309;28;20124;-78
2023/06/08 08:35:52;;;;;;;2.58;2.47;;;;;;;;;;5001082;28;20042;-77
2023/06/08 08:38:18;;;;;;;4.05;2.60;;;;;;;;;;5002638;28;20060;-78
2023/06/08 08:40:44;;;;;;;2.80;2.60;;;;;;;;;;4997579;28;20081;-77
2023/06/08 08:43:10;;;;;;;3.00;2.80;;;;;;;;;;4999636;28;20054;-77
2023/06/08 08:45:36;;;;;;;3.60;2.53;;;;;;;;;;4986112;28;20046;-77
2023/06/08 08:48:03;;;;;;;2.45;2.33;;;;;;;;;;4998925;28;20098;-77
2023/06/08 08:50:29;;;;;;;2.70;2.50;;;;;;;;;;5016588;28;20038;-77
2023/06/08 08:52:56;;;;;;;2.58;2.40;;;;;;;;;;5000843;28;20491;-77
2023/06/08 08:55:27;;;;;;;2.67;2.35;;;;;;;;;;4999827;28;20546;-77
2023/06/08 08:57:59;;;;;;;2.58;2.42;;;;;;;;;;4998563;28;20110;-77
2023/06/08 09:00:26;;;;;;;2.35;2.25;;;;;;;;;;5001128;28;20100;-77
2023/06/08 09:02:52;;;;;;;5.97;2.95;;;;;;;;;;5016579;28;20042;-77
2023/06/08 09:05:18;;;;;;;2.20;2.10;;;;;;;;;;5003496;28;20103;-77
2023/06/08 09:07:44;;;;;;;3.47;3.00;;;;;;;;;;5012465;28;20051;-77
2023/06/08 09:10:19;;;;;;;3.00;2.80;;;;;;;;;;5001053;28;20457;-75
2023/06/08 09:12:49;;;;;;;2.30;2.10;;;;;;;;;;4999636;28;20096;-78
2023/06/08 09:15:24;;;;;;;2.65;2.45;;;;;;;;;;4998476;28;20053;-77
2023/06/08 09:17:51;;;;;;;5.13;2.30;;;;;;;;;;4999424;28;20056;-77
2023/06/08 09:20:17;;;;;;;3.05;2.30;;;;;;;;;;4986038;28;20196;-77
2023/06/08 09:22:44;;;;;;;2.10;2.00;;;;;;;;;;4982563;28;20510;-77
2023/06/08 09:25:10;;;;;;;4.03;2.75;;;;;;;;;;4985711;28;20074;-77
2023/06/08 09:27:37;;;;;;;2.95;2.40;;;;;;;;;;4982861;28;20050;-77
2023/06/08 09:30:03;;;;;;;2.40;2.30;;;;;;;;;;5014672;28;20140;-77
2023/06/08 09:32:32;;;;;;;3.15;2.45;;;;;;;;;;5002113;28;20045;-77
2023/06/08 09:35:02;;;;;;;4.10;2.40;;;;;;;;;;4999636;28;20057;-77
2023/06/08 09:37:32;;;;;;;4.05;2.38;;;;;;;;;;4984412;28;20123;-81
2023/06/08 09:39:59;;;;;;;2.88;2.67;;;;;;;;;;5003534;28;20046;-77
2023/06/08 09:42:44;;;;;;;5.20;2.40;;;;;;;;;;5000897;28;20499;-76
2023/06/08 09:45:14;;;;;;;3.63;2.30;;;;;;;;;;5000144;28;20576;-77
2023/06/08 09:47:40;;;;;;;4.25;2.47;;;;;;;;;;4997626;28;20038;-77
2023/06/08 09:50:08;;;;;;;4.47;2.90;;;;;;;;;;5000268;28;20104;-77
2023/06/08 09:52:34;;;;;;;3.67;2.20;;;;;;;;;;4997755;28;20050;-77
2023/06/08 09:55:00;;;;;;;3.50;2.53;;;;;;;;;;4997731;28;20068;-77
2023/06/08 09:57:27;;;;;;;4.38;3.00;;;;;;;;;;5000729;28;20515;-77
2023/06/08 09:59:54;;;;;;;7.85;2.70;;;;;;;;;;4983480;28;20042;-77
2023/06/08 10:02:22;;;;;;;2.88;2.63;;;;;;;;;;5014642;28;20077;-77
2023/06/08 10:04:50;;;;;;;3.05;2.85;;;;;;;;;;4994438;28;20069;-77
2023/06/08 10:07:17;;;;;;;2.65;2.50;;;;;;;;;;4999296;28;20042;-77
2023/06/08 10:09:43;;;;;;;2.60;2.40;;;;;;;;;;4997984;28;20070;-77
2023/06/08 10:12:09;;;;;;;2.30;2.20;;;;;;;;;;4995180;28;20696;-76
2023/06/08 10:14:36;;;;;;;2.50;2.40;;;;;;;;;;5012604;28;20108;-76
2023/06/08 10:17:02;;;;;;;3.05;2.47;;;;;;;;;;4995366;28;20042;-76
2023/06/08 10:19:28;;;;;;;3.30;2.17;;;;;;;;;;5015975;28;20050;-76
2023/06/08 10:21:54;;;;;;;2.90;2.60;;;;;;;;;;4984175;28;20045;-76
2023/06/08 10:24:21;;;;;;;4.15;2.40;;;;;;;;;;4987559;28;20046;-76
2023/06/08 10:26:50;;;;;;;2.40;2.30;;;;;;;;;;4997907;28;20061;-77
2023/06/08 10:29:16;;;;;;;2.63;2.22;;;;;;;;;;5001419;28;20173;-77
2023/06/08 10:31:43;;;;;;;2.78;2.58;;;;;;;;;;5002217;28;20038;-77
2023/06/08 10:34:10;;;;;;;5.32;2.30;;;;;;;;;;5003755;28;20112;-76
2023/06/08 10:36:36;;;;;;;2.70;2.40;;;;;;;;;;5000107;28;20069;-76
2023/06/08 10:39:06;;;;;;;4.80;2.50;;;;;;;;;;4999839;28;20471;-76
2023/06/08 10:41:39;;;;;;;2.67;2.40;;;;;;;;;;5003740;28;20439;-76
2023/06/08 10:44:06;;;;;;;2.58;2.47;;;;;;;;;;5001310;28;20067;-77
2023/06/08 10:46:41;;;;;;;2.75;2.50;;;;;;;;;;5004166;28;20519;-75
2023/06/08 10:49:07;;;;;;;12.20;2.65;;;;;;;;;;5000315;28;20053;-76
2023/06/08 10:51:45;;;;;;;2.50;2.30;;;;;;;;;;4998334;28;20053;-77
2023/06/08 10:54:30;;;;;;;3.78;2.95;;;;;;;;;;5000123;28;20120;-77
2023/06/08 10:56:57;;;;;;;2.72;2.53;;;;;;;;;;4999166;28;20071;-76
2023/06/08 10:59:25;;;;;;;3.28;2.50;;;;;;;;;;5004595;28;20056;-76
2023/06/08 11:01:51;;;;;;;3.22;2.70;;;;;;;;;;4996939;28;20530;-76
2023/06/08 11:04:17;;;;;;;2.92;2.30;;;;;;;;;;4986433;28;20045;-76
2023/06/08 11:06:43;;;;;;;2.80;2.60;;;;;;;;;;5013223;28;20081;-76
2023/06/08 11:09:09;;;;;;;2.50;2.30;;;;;;;;;;4985713;28;20050;-76
2023/06/08 11:11:35;;;;;;;2.88;2.50;;;;;;;;;;4986060;28;20137;-75
2023/06/08 11:14:01;;;;;;;2.13;2.03;;;;;;;;;;5017099;28;20056;-77
2023/06/08 11:16:27;;;;;;;2.03;1.88;;;;;;;;;;5003173;28;20045;-77
2023/06/08 11:18:53;;;;;;;3.20;2.40;;;;;;;;;;5000701;28;20647;-77
2023/06/08 11:21:23;;;;;;;2.42;2.20;;;;;;;;;;5000637;28;20121;-77
2023/06/08 11:23:49;;;;;;;2.35;2.15;;;;;;;;;;5011673;28;20062;-77
2023/06/08 11:26:16;;;;;;;2.83;2.50;;;;;;;;;;5002133;28;20097;-77
2023/06/08 11:28:44;;;;;;;3.00;2.70;;;;;;;;;;5000851;28;20045;-77
2023/06/08 11:31:10;;;;;;;2.78;2.67;;;;;;;;;;5000979;28;20480;-77
2023/06/08 11:33:36;;;;;;;2.53;2.38;;;;;;;;;;5001565;28;20034;-77
2023/06/08 11:36:03;;;;;;;2.10;1.90;;;;;;;;;;5009169;28;20050;-77
2023/06/08 11:38:29;;;;;;;2.22;2.10;;;;;;;;;;5003536;28;20046;-77
2023/06/08 11:40:58;;;;;;;3.58;2.50;;;;;;;;;;5004474;28;20057;-77
2023/06/08 11:43:24;;;;;;;3.80;2.00;;;;;;;;;;4999555;28;20038;-77
2023/06/08 11:45:50;;;;;;;2.20;1.75;;;;;;;;;;5005310;28;20076;-77
2023/06/08 11:48:16;;;;;;;2.40;2.25;;;;;;;;;;5002149;28;20411;-77
2023/06/08 11:50:48;;;;;;;3.28;2.30;;;;;;;;;;5009502;28;20491;-77
2023/06/08 11:53:16;;;;;;;4.38;2.28;;;;;;;;;;5008933;28;20107;-77
2023/06/08 11:55:45;;;;;;;2.50;2.30;;;;;;;;;;5003139;28;20045;-76
2023/06/08 11:58:14;;;;;;;3.88;2.33;;;;;;;;;;4989215;28;20046;-78
2023/06/08 12:00:40;;;;;;;2.53;2.30;;;;;;;;;;5001542;28;20511;-77
2023/06/08 12:03:06;;;;;;;2.10;1.90;;;;;;;;;;5001704;28;20046;-76
2023/06/08 12:05:32;;;;;;;5.00;2.50;;;;;;;;;;5019575;28;20517;-78
2023/06/08 12:07:59;;;;;;;4.13;2.42;;;;;;;;;;5005124;28;20038;-78
2023/06/08 12:10:31;;;;;;;3.88;2.42;;;;;;;;;;5006254;28;20446;-78
2023/06/08 12:12:57;;;;;;;2.67;2.28;;;;;;;;;;5004328;28;20542;-81
2023/06/08 12:15:23;;;;;;;2.28;2.08;;;;;;;;;;5003884;28;20054;-80
2023/06/08 12:17:49;;;;;;;4.60;2.42;;;;;;;;;;5004141;28;20038;-80
2023/06/08 12:20:16;;;;;;;2.95;2.50;;;;;;;;;;5022824;28;20038;-78
2023/06/08 12:22:42;;;;;;;3.33;2.65;;;;;;;;;;4988924;28;20388;-77
2023/06/08 12:25:08;;;;;;;3.45;2.45;;;;;;;;;;5004623;28;20046;-77
2023/06/08 12:27:37;;;;;;;3.85;2.20;;;;;;;;;;5003355;28;20499;-77
2023/06/08 12:30:07;;;;;;;3.70;2.47;;;;;;;;;;4990767;28;20458;-77
2023/06/08 12:32:33;;;;;;;2.85;2.65;;;;;;;;;;5007645;28;20042;-77
2023/06/08 12:35:03;;;;;;;3.78;2.42;;;;;;;;;;5003152;28;20049;-77
2023/06/08 12:37:29;;;;;;;2.63;2.20;;;;;;;;;;4989489;28;20120;-77
2023/06/08 12:39:56;;;;;;;2.17;1.92;;;;;;;;;;5002665;28;20423;-77
2023/06/08 12:42:21;;;;;;;2.67;2.30;;;;;;;;;;5003798;28;20049;-76
2023/06/08 12:44:48;;;;;;;2.58;2.15;;;;;;;;;;5003732;28;20042;-76
2023/06/08 12:47:14;;;;;;;2.00;1.90;;;;;;;;;;5018701;28;20065;-76
2023/06/08 12:49:43;;;;;;;2.53;2.33;;;;;;;;;;4987056;28;20045;-76
2023/06/08 12:52:09;;;;;;;2.65;1.98;;;;;;;;;;5017240;28;20099;-77
2023/06/08 12:54:35;;;;;;;2.17;1.95;;;;;;;;;;5004115;28;20329;-77
2023/06/08 12:57:01;;;;;;;2.28;2.00;;;;;;;;;;5017998;28;20574;-77
2023/06/08 12:59:27;;;;;;;1.92;1.80;;;;;;;;;;5007401;28;20045;-77
2023/06/08 13:01:53;;;;;;;3.13;2.30;;;;;;;;;;5002735;28;20119;-77
2023/06/08 13:04:19;;;;;;;2.05;1.73;;;;;;;;;;5005506;28;20057;-77
2023/06/08 13:06:46;;;;;;;1.90;1.80;;;;;;;;;;5002926;28;20045;-78
2023/06/08 13:09:12;;;;;;;2.55;2.35;;;;;;;;;;5004428;28;20460;-77
2023/06/08 13:11:39;;;;;;;3.50;2.20;;;;;;;;;;5002210;28;20129;-77
2023/06/08 13:14:06;;;;;;;2.40;2.25;;;;;;;;;;5004629;28;20455;-77
2023/06/08 13:16:32;;;;;;;1.90;1.80;;;;;;;;;;5003303;28;20038;-77
2023/06/08 13:18:58;;;;;;;2.38;1.90;;;;;;;;;;5002398;28;20045;-77
2023/06/08 13:21:24;;;;;;;2.30;2.10;;;;;;;;;;4988816;28;20049;-77
2023/06/08 13:23:50;;;;;;;3.78;1.95;;;;;;;;;;4999827;28;20046;-77
2023/06/08 13:26:17;;;;;;;2.20;1.88;;;;;;;;;;5000416;28;20033;-77
2023/06/08 13:28:44;;;;;;;2.00;1.90;;;;;;;;;;5000356;28;20073;-77
2023/06/08 13:31:11;;;;;;;2.08;1.88;;;;;;;;;;5002686;28;20522;-77
2023/06/08 13:33:37;;;;;;;3.03;1.73;;;;;;;;;;5004699;28;20034;-77
2023/06/08 13:36:03;;;;;;;1.70;1.60;;;;;;;;;;5018192;28;20120;-77
2023/06/08 13:38:29;;;;;;;2.30;2.10;;;;;;;;;;5005710;28;20094;-77
2023/06/08 13:40:55;;;;;;;2.30;2.20;;;;;;;;;;5002410;28;20049;-76
2023/06/08 13:43:21;;;;;;;2.38;2.08;;;;;;;;;;5004155;28;20034;-77
2023/06/08 13:45:47;;;;;;;2.75;2.13;;;;;;;;;;5000688;28;20061;-77
2023/06/08 13:48:13;;;;;;;2.70;2.50;;;;;;;;;;5017277;28;20206;-77
2023/06/08 13:50:39;;;;;;;1.73;1.63;;;;;;;;;;5001293;28;20127;-77
2023/06/08 13:53:05;;;;;;;2.33;1.75;;;;;;;;;;5005791;28;20057;-76
2023/06/08 13:55:31;;;;;;;2.80;2.13;;;;;;;;;;5001230;28;20038;-77
2023/06/08 13:57:57;;;;;;;2.08;1.88;;;;;;;;;;5001863;28;20124;-76
2023/06/08 14:00:23;;;;;;;2.20;2.10;;;;;;;;;;5003216;28;20132;-76
2023/06/08 14:02:50;;;;;;;1.75;1.65;;;;;;;;;;5003669;28;20038;-76
2023/06/08 14:05:20;;;;;;;2.20;2.10;;;;;;;;;;5004361;28;20044;-76
2023/06/08 14:07:46;;;;;;;1.75;1.63;;;;;;;;;;4986920;28;20346;-77
2023/06/08 14:10:12;;;;;;;2.63;1.80;;;;;;;;;;4999893;28;20042;-77
2023/06/08 14:12:38;;;;;;;2.20;1.88;;;;;;;;;;5001472;28;20142;-77
2023/06/08 14:15:05;;;;;;;2.67;2.30;;;;;;;;;;5003432;28;20140;-77
2023/06/08 14:17:31;;;;;;;4.68;2.70;;;;;;;;;;5003673;28;20114;-76
2023/06/08 14:19:57;;;;;;;1.98;1.88;;;;;;;;;;4987002;28;20214;-77
2023/06/08 14:22:23;;;;;;;2.33;1.90;;;;;;;;;;4988382;28;20030;-77
2023/06/08 14:24:49;;;;;;;1.98;1.80;;;;;;;;;;4999430;28;20041;-77
2023/06/08 14:27:15;;;;;;;2.92;1.88;;;;;;;;;;5002372;28;20500;-77
2023/06/08 14:29:41;;;;;;;2.08;1.98;;;;;;;;;;5002424;28;20046;-77
2023/06/08 14:32:07;;;;;;;1.50;1.40;;;;;;;;;;5017866;28;20431;-77
2023/06/08 14:34:34;;;;;;;1.90;1.80;;;;;;;;;;5001369;28;20157;-77
2023/06/08 14:37:00;;;;;;;2.08;1.98;;;;;;;;;;5002828;28;20042;-76